Time,TemperatureF,DewpointF,PressureIn,WindDirection,WindDirectionDegrees,WindSpeedMPH,WindSpeedGustMPH,Humidity,HourlyPrecipIn,Conditions,Clouds,dailyrainin,SoftwareType,DateUTC
2013-12-31 00:23:00,10.0,7.0,29.96,NE,41,7.0,11.0,87,0.00,,,0.00,,2013-12-31 07:23:00,
2013-12-31 00:42:00,10.0,7.0,29.96,NE,48,6.0,11.0,87,0.00,,,0.00,,2013-12-31 07:42:00,
2013-12-31 00:52:00,10.0,7.0,29.96,NE,44,5.0,10.0,87,0.00,,,0.00,,2013-12-31 07:52:00,
2013-12-31 01:11:00,10.0,7.0,29.95,NE,47,5.0,9.0,88,0.00,,,0.00,,2013-12-31 08:11:00,
2013-12-31 01:22:00,10.0,7.0,29.95,NE,47,5.0,9.0,88,0.00,,,0.00,,2013-12-31 08:22:00,
2013-12-31 01:32:00,10.0,7.0,29.95,NE,47,5.0,9.0,88,0.00,,,0.00,,2013-12-31 08:32:00,
2013-12-31 01:42:00,10.0,7.0,29.95,NE,47,5.0,9.0,88,0.00,,,0.00,,2013-12-31 08:42:00,
2013-12-31 03:53:00,5.0,2.0,29.98,NNE,24,9.0,14.0,87,0.00,,,0.00,,2013-12-31 10:53:00,
2013-12-31 04:12:00,5.0,2.0,29.98,NNE,28,10.0,15.0,86,0.00,,,0.00,,2013-12-31 11:12:00,
2013-12-31 04:22:00,4.0,1.0,29.98,NNE,22,9.0,15.0,86,0.00,,,0.00,,2013-12-31 11:22:00,
2013-12-31 04:43:00,4.0,1.0,29.98,NNE,26,10.0,16.0,86,0.00,,,0.00,,2013-12-31 11:43:00,
2013-12-31 04:53:00,4.0,1.0,29.98,NNE,26,10.0,16.0,86,0.00,,,0.00,,2013-12-31 11:53:00,
2013-12-31 05:02:00,4.0,1.0,29.98,NNE,26,10.0,16.0,86,0.00,,,0.00,,2013-12-31 12:02:00,
2013-12-31 05:11:00,4.0,1.0,29.98,NNE,26,10.0,16.0,86,0.00,,,0.00,,2013-12-31 12:11:00,
2013-12-31 07:43:00,3.0,0.0,30.04,NNE,19,7.0,10.0,86,0.00,,,0.00,,2013-12-31 14:43:00,
2013-12-31 07:53:00,3.0,0.0,30.05,NNE,23,5.0,9.0,86,0.00,,,0.00,,2013-12-31 14:53:00,
2013-12-31 08:01:00,3.0,0.0,30.06,NNE,19,5.0,8.0,86,0.00,,,0.00,,2013-12-31 15:01:00,
2013-12-31 08:11:00,3.0,0.0,30.05,NNE,26,4.0,7.0,86,0.00,,,0.00,,2013-12-31 15:11:00,
2013-12-31 08:22:00,3.0,0.0,30.06,NNE,19,5.0,8.0,86,0.00,,,0.00,,2013-12-31 15:22:00,
2013-12-31 08:33:00,3.0,0.0,30.06,NNE,19,5.0,8.0,86,0.00,,,0.00,,2013-12-31 15:33:00,
2013-12-31 08:43:00,3.0,0.0,30.06,NNE,19,5.0,8.0,86,0.00,,,0.00,,2013-12-31 15:43:00,
2013-12-31 08:53:00,3.0,0.0,30.06,NNE,19,5.0,8.0,86,0.00,,,0.00,,2013-12-31 15:53:00,
2013-12-31 11:12:00,6.0,3.0,30.06,ENE,66,6.0,9.0,86,0.00,,,0.00,,2013-12-31 18:12:00,
2013-12-31 11:22:00,7.0,4.0,30.07,ENE,67,3.0,8.0,86,0.00,,,0.00,,2013-12-31 18:22:00,
2013-12-31 11:31:00,7.0,4.0,30.04,ENE,67,2.0,7.0,86,0.00,,,0.00,,2013-12-31 18:31:00,
2013-12-31 11:42:00,7.0,4.0,30.06,ENE,67,3.0,5.0,86,0.00,,,0.00,,2013-12-31 18:42:00,
2013-12-31 11:53:00,7.0,4.0,30.04,ENE,67,2.0,7.0,86,0.00,,,0.00,,2013-12-31 18:53:00,
2013-12-31 12:01:00,7.0,4.0,30.04,ENE,67,2.0,7.0,86,0.00,,,0.00,,2013-12-31 19:01:00,
2013-12-31 12:12:00,7.0,4.0,30.04,ENE,67,2.0,7.0,86,0.00,,,0.00,,2013-12-31 19:12:00,
2013-12-31 12:22:00,7.0,4.0,30.04,ENE,67,2.0,7.0,86,0.00,,,0.00,,2013-12-31 19:22:00,
2013-12-31 14:43:00,8.0,5.0,30.02,ENE,77,5.0,8.0,87,0.00,,,0.00,,2013-12-31 21:43:00,
2013-12-31 14:53:00,8.0,5.0,30.02,ENE,69,5.0,9.0,87,0.00,,,0.00,,2013-12-31 21:53:00,
2013-12-31 15:02:00,7.0,4.0,30.02,NE,56,5.0,9.0,87,0.00,,,0.00,,2013-12-31 22:02:00,
2013-12-31 15:13:00,7.0,4.0,30.03,ENE,63,6.0,9.0,87,0.00,,,0.00,,2013-12-31 22:13:00,
2013-12-31 15:23:00,7.0,4.0,30.02,NE,56,5.0,9.0,87,0.00,,,0.00,,2013-12-31 22:23:00,
2013-12-31 15:33:00,7.0,4.0,30.02,NE,56,5.0,9.0,87,0.00,,,0.00,,2013-12-31 22:33:00,
2013-12-31 15:43:00,7.0,4.0,30.02,NE,56,5.0,9.0,87,0.00,,,0.00,,2013-12-31 22:43:00,
2013-12-31 15:53:00,7.0,4.0,30.02,NE,56,5.0,9.0,87,0.00,,,0.00,,2013-12-31 22:53:00,
2013-12-31 18:22:00,7.0,4.0,30.09,NE,44,4.0,6.0,86,0.00,,,0.00,,2014-01-01 01:22:00,
2013-12-31 18:42:00,7.0,4.0,30.09,NE,41,5.0,7.0,86,0.00,,,0.00,,2014-01-01 01:42:00,
2013-12-31 18:52:00,6.0,3.0,30.09,NE,37,5.0,8.0,86,0.00,,,0.00,,2014-01-01 01:52:00,
2013-12-31 19:11:00,6.0,2.0,30.09,NNE,24,5.0,10.0,85,0.00,,,0.00,,2014-01-01 02:11:00,
2013-12-31 19:22:00,6.0,2.0,30.09,NNE,24,5.0,10.0,85,0.00,,,0.00,,2014-01-01 02:22:00,
2013-12-31 19:32:00,6.0,2.0,30.09,NNE,24,5.0,10.0,85,0.00,,,0.00,,2014-01-01 02:32:00,
2013-12-31 19:42:00,6.0,2.0,30.09,NNE,24,5.0,10.0,85,0.00,,,0.00,,2014-01-01 02:42:00,
2013-12-31 21:53:00,6.0,3.0,30.14,North,5,3.0,6.0,86,0.00,,,0.00,,2014-01-01 04:53:00,
2013-12-31 22:22:00,6.0,3.0,30.14,North,5,3.0,4.0,86,0.00,,,0.00,,2014-01-01 05:22:00,
2013-12-31 22:43:00,6.0,3.0,30.13,North,5,0.0,3.0,86,0.00,,,0.00,,2014-01-01 05:43:00,
2013-12-31 22:53:00,6.0,3.0,30.13,North,5,0.0,3.0,86,0.00,,,0.00,,2014-01-01 05:53:00,
2013-12-31 23:02:00,6.0,3.0,30.13,North,5,0.0,3.0,86,0.00,,,0.00,,2014-01-01 06:02:00,
2013-12-31 23:12:00,6.0,3.0,30.13,North,5,0.0,3.0,86,0.00,,,0.00,,2014-01-01 06:12:00,